Time;durP1;ratioP1;P1;durP2;ratioP2;P2;SDS_P1;SDS_P2;PMS_P1;PMS_P2;Temp;Humidity;BMP_temperature;BMP_pressure;BME280_temperature;BME280_humidity;BME280_pressure;Samples;Min_cycle;Max_cycle;Signal;HPM_P1;HPM_P2
2021/12/25 00:00:00;;;;;;;3.55;1.40;;;;;;;;;;4894097;29;20036;-82
2021/12/25 00:02:26;;;;;;;8.25;1.10;;;;;;;;;;4894091;29;20025;-82
2021/12/25 00:04:52;;;;;;;4.20;1.50;;;;;;;;;;4893703;29;20017;-83
2021/12/25 00:07:17;;;;;;;3.85;1.83;;;;;;;;;;4892476;29;20033;-83
2021/12/25 00:09:43;;;;;;;5.20;1.88;;;;;;;;;;4893107;29;20021;-82
2021/12/25 00:12:08;;;;;;;5.35;1.60;;;;;;;;;;4894081;29;20025;-83
2021/12/25 00:14:34;;;;;;;4.40;1.60;;;;;;;;;;4893884;29;20025;-82
2021/12/25 00:17:00;;;;;;;4.15;1.23;;;;;;;;;;4894355;29;20029;-82
2021/12/25 00:19:25;;;;;;;2.80;1.20;;;;;;;;;;4896050;29;20480;-82
2021/12/25 00:21:51;;;;;;;2.90;1.15;;;;;;;;;;4895644;29;20026;-83
2021/12/25 00:24:16;;;;;;;4.15;1.05;;;;;;;;;;4894842;29;20070;-83
2021/12/25 00:27:48;;;;;;;3.20;0.90;;;;;;;;;;4894429;29;20017;-82
2021/12/25 00:34:48;;;;;;;2.88;0.88;;;;;;;;;;4895998;29;20025;-82
2021/12/25 00:37:14;;;;;;;1.42;0.73;;;;;;;;;;4896484;29;20033;-82
2021/12/25 00:39:39;;;;;;;2.05;0.75;;;;;;;;;;4896533;29;20029;-82
2021/12/25 00:42:06;;;;;;;4.93;1.00;;;;;;;;;;4896576;29;20045;-82
2021/12/25 00:44:33;;;;;;;1.70;0.50;;;;;;;;;;4896056;29;20031;-82
2021/12/25 00:46:58;;;;;;;1.92;0.70;;;;;;;;;;4896673;29;20006;-82
2021/12/25 00:49:24;;;;;;;2.28;0.63;;;;;;;;;;4897674;29;20049;-82
2021/12/25 00:51:49;;;;;;;0.75;0.40;;;;;;;;;;4897198;29;20029;-82
2021/12/25 00:54:15;;;;;;;3.13;0.50;;;;;;;;;;4897690;29;20025;-83
2021/12/25 00:56:41;;;;;;;1.45;0.70;;;;;;;;;;4899382;29;20049;-83
2021/12/25 00:59:06;;;;;;;1.45;0.55;;;;;;;;;;4900340;29;20040;-83
2021/12/25 01:01:31;;;;;;;1.77;0.70;;;;;;;;;;4899494;29;20300;-83
2021/12/25 01:04:00;;;;;;;2.72;0.85;;;;;;;;;;4896532;29;20020;-83
2021/12/25 01:06:25;;;;;;;0.80;0.50;;;;;;;;;;4896923;29;20029;-82
2021/12/25 01:08:51;;;;;;;2.70;1.45;;;;;;;;;;4895800;29;20019;-83
2021/12/25 01:11:16;;;;;;;2.67;0.70;;;;;;;;;;4897490;29;20021;-83
2021/12/25 01:13:54;;;;;;;1.20;0.60;;;;;;;;;;4891863;29;20603;-82
2021/12/25 01:47:52;;;;;;;3.90;0.52;;;;;;;;;;4897739;29;20053;-82
2021/12/25 01:50:20;;;;;;;1.17;0.50;;;;;;;;;;4894646;29;20050;-82
2021/12/25 01:52:46;;;;;;;0.98;0.50;;;;;;;;;;4891480;29;20076;-82
2021/12/25 01:55:14;;;;;;;1.35;0.50;;;;;;;;;;4891779;29;20058;-82
2021/12/25 01:57:40;;;;;;;1.40;0.80;;;;;;;;;;4893249;29;20073;-83
2021/12/25 02:00:08;;;;;;;1.10;0.40;;;;;;;;;;4891359;29;20491;-83
2021/12/25 02:02:34;;;;;;;3.37;0.77;;;;;;;;;;4891670;29;20056;-82
2021/12/25 02:04:59;;;;;;;2.45;1.00;;;;;;;;;;4889017;29;20255;-83
2021/12/25 02:07:24;;;;;;;3.80;0.80;;;;;;;;;;4889779;29;20021;-82
2021/12/25 02:09:50;;;;;;;1.98;0.60;;;;;;;;;;4892994;29;20017;-83
2021/12/25 02:12:16;;;;;;;2.78;0.50;;;;;;;;;;4893331;29;20389;-83
2021/12/25 02:14:44;;;;;;;1.05;0.45;;;;;;;;;;4893828;29;20017;-83
2021/12/25 02:17:46;;;;;;;4.72;1.05;;;;;;;;;;4890120;29;20473;-82
2021/12/25 02:20:08;;;;;;;1.00;0.50;;;;;;;;;;4893562;29;20081;-83
2021/12/25 02:22:34;;;;;;;2.08;0.80;;;;;;;;;;4898896;29;20080;-82
2021/12/25 02:24:59;;;;;;;0.95;0.30;;;;;;;;;;4898434;29;20015;-82
2021/12/25 02:27:24;;;;;;;0.73;0.30;;;;;;;;;;4899439;29;20057;-83
2021/12/25 02:29:50;;;;;;;1.23;0.40;;;;;;;;;;4897620;29;20081;-82
2021/12/25 02:32:15;;;;;;;1.95;0.40;;;;;;;;;;4895762;29;20028;-82
2021/12/25 02:34:40;;;;;;;0.45;0.25;;;;;;;;;;4893261;29;20050;-83
2021/12/25 02:37:06;;;;;;;1.00;0.32;;;;;;;;;;4893087;29;20049;-82
2021/12/25 02:39:31;;;;;;;0.80;0.25;;;;;;;;;;4893191;29;20021;-82
2021/12/25 02:41:57;;;;;;;1.48;0.47;;;;;;;;;;4893228;29;20052;-82
2021/12/25 02:44:22;;;;;;;1.88;0.43;;;;;;;;;;4892981;29;20054;-82
2021/12/25 02:46:52;;;;;;;1.98;0.30;;;;;;;;;;4893164;29;20028;-82
2021/12/25 02:49:20;;;;;;;1.08;0.32;;;;;;;;;;4892401;29;20041;-82
2021/12/25 02:51:46;;;;;;;0.50;0.28;;;;;;;;;;4894353;29;20021;-82
2021/12/25 02:54:12;;;;;;;0.35;0.20;;;;;;;;;;4894490;29;20033;-82
2021/12/25 02:56:37;;;;;;;1.20;0.38;;;;;;;;;;4897542;29;20032;-82
2021/12/25 02:59:02;;;;;;;1.10;0.50;;;;;;;;;;4899111;29;20037;-81
2021/12/25 03:01:28;;;;;;;1.92;0.60;;;;;;;;;;4898187;29;20040;-82
2021/12/25 03:03:53;;;;;;;0.63;0.20;;;;;;;;;;4898634;29;20089;-81
2021/12/25 03:06:19;;;;;;;0.88;0.40;;;;;;;;;;4899636;29;20021;-82
2021/12/25 03:08:44;;;;;;;1.13;0.38;;;;;;;;;;4901206;29;20037;-82
2021/12/25 03:11:13;;;;;;;0.93;0.35;;;;;;;;;;4901678;29;20029;-83
2021/12/25 03:13:56;;;;;;;1.65;0.40;;;;;;;;;;4901099;29;20025;-83
2021/12/25 03:16:22;;;;;;;1.27;0.40;;;;;;;;;;4900750;29;20036;-82
2021/12/25 03:18:51;;;;;;;0.98;0.40;;;;;;;;;;4898653;29;20029;-81
2021/12/25 03:21:17;;;;;;;0.52;0.30;;;;;;;;;;4897384;29;20035;-82
2021/12/25 03:23:42;;;;;;;1.13;0.43;;;;;;;;;;4895275;29;20028;-81
2021/12/25 03:26:08;;;;;;;0.43;0.30;;;;;;;;;;4893638;29;20108;-82
2021/12/25 03:28:37;;;;;;;0.88;0.38;;;;;;;;;;4894297;29;20534;-82
2021/12/25 03:31:04;;;;;;;2.17;0.40;;;;;;;;;;4894085;29;20059;-82
2021/12/25 03:33:30;;;;;;;1.20;0.50;;;;;;;;;;4894219;29;20081;-81
2021/12/25 03:35:55;;;;;;;2.55;0.55;;;;;;;;;;4893949;29;20025;-82
2021/12/25 03:38:21;;;;;;;0.98;0.60;;;;;;;;;;4893065;29;20023;-82
2021/12/25 03:40:50;;;;;;;0.90;0.35;;;;;;;;;;4893689;29;20035;-82
2021/12/25 03:43:15;;;;;;;;;;;;;;;;;;4892335;29;20029;-82
2021/12/25 03:45:40;;;;;;;0.88;0.40;;;;;;;;;;4892895;29;19955;-82
2021/12/25 03:58:58;;;;;;;5.20;2.20;;;;;;;;;;4893282;29;20511;-81
2021/12/25 04:04:03;;;;;;;2.33;0.90;;;;;;;;;;4892288;29;20036;-82
2021/12/25 04:06:29;;;;;;;1.47;0.40;;;;;;;;;;4890622;29;20520;-82
2021/12/25 04:08:56;;;;;;;1.57;0.40;;;;;;;;;;4890070;29;20029;-81
2021/12/25 04:11:28;;;;;;;0.97;0.47;;;;;;;;;;4891376;29;20032;-82
2021/12/25 04:13:53;;;;;;;1.73;0.50;;;;;;;;;;4894038;29;20029;-83
2021/12/25 04:16:19;;;;;;;1.57;0.50;;;;;;;;;;4893281;29;20028;-82
2021/12/25 04:18:44;;;;;;;1.30;0.60;;;;;;;;;;4894149;29;20025;-82
2021/12/25 04:21:09;;;;;;;1.23;0.57;;;;;;;;;;4891400;29;20060;-82
2021/12/25 04:23:38;;;;;;;0.93;0.40;;;;;;;;;;4892525;29;20474;-82
2021/12/25 04:26:04;;;;;;;0.88;0.40;;;;;;;;;;4901186;23;20049;-78
2021/12/25 04:28:53;;;;;;;3.08;0.50;;;;;;;;;;4889771;29;20033;-78
2021/12/25 05:03:43;;;;;;;3.90;0.60;;;;;;;;;;4871501;29;20033;-78
2021/12/25 05:06:08;;;;;;;2.58;0.60;;;;;;;;;;4871760;29;20033;-78
2021/12/25 05:08:34;;;;;;;1.75;0.30;;;;;;;;;;4869620;29;20474;-79
2021/12/25 05:11:02;;;;;;;1.13;0.35;;;;;;;;;;4870939;29;20029;-78
2021/12/25 05:13:27;;;;;;;1.60;0.50;;;;;;;;;;4871231;29;20536;-78
2021/12/25 05:15:53;;;;;;;1.33;0.30;;;;;;;;;;4867131;29;20096;-77
2021/12/25 05:18:18;;;;;;;1.02;0.30;;;;;;;;;;4865374;29;20098;-78
2021/12/25 05:20:43;;;;;;;1.70;0.50;;;;;;;;;;4868021;29;20022;-78
2021/12/25 05:23:09;;;;;;;1.58;0.43;;;;;;;;;;4868815;29;20107;-78
2021/12/25 05:25:35;;;;;;;3.63;0.37;;;;;;;;;;4868693;29;20037;-79
2021/12/25 05:28:01;;;;;;;1.37;0.57;;;;;;;;;;4867728;29;20078;-78
2021/12/25 05:30:27;;;;;;;0.98;0.22;;;;;;;;;;4866437;29;20257;-77
2021/12/25 05:32:53;;;;;;;2.70;0.50;;;;;;;;;;4867371;29;20421;-78
2021/12/25 05:35:18;;;;;;;2.85;0.82;;;;;;;;;;4867067;29;20573;-79
2021/12/25 05:37:43;;;;;;;1.07;0.37;;;;;;;;;;4869812;29;20116;-78
2021/12/25 05:40:09;;;;;;;1.80;0.50;;;;;;;;;;4870233;29;20101;-78
2021/12/25 05:42:34;;;;;;;1.70;0.50;;;;;;;;;;4870459;29;20018;-78
2021/12/25 05:44:59;;;;;;;1.50;0.50;;;;;;;;;;4870372;29;20028;-78
2021/12/25 05:47:26;;;;;;;3.20;0.47;;;;;;;;;;4870340;29;20026;-81
2021/12/25 05:49:51;;;;;;;2.28;0.60;;;;;;;;;;4870380;29;20520;-79
2021/12/25 05:52:16;;;;;;;0.82;0.45;;;;;;;;;;4870225;29;20049;-78
2021/12/25 05:54:42;;;;;;;1.48;0.40;;;;;;;;;;4868508;29;20397;-78
2021/12/25 05:57:07;;;;;;;0.73;0.43;;;;;;;;;;4869892;29;20293;-78
2021/12/25 05:59:32;;;;;;;0.87;0.30;;;;;;;;;;4885096;29;20532;-79
2021/12/25 06:01:58;;;;;;;1.97;0.80;;;;;;;;;;4869375;29;20030;-77
2021/12/25 06:04:23;;;;;;;1.15;0.50;;;;;;;;;;4870146;29;20423;-81
2021/12/25 06:06:48;;;;;;;2.23;0.67;;;;;;;;;;4869065;29;20033;-79
2021/12/25 06:09:13;;;;;;;0.95;0.32;;;;;;;;;;4869287;29;20021;-78
2021/12/25 06:11:42;;;;;;;1.95;0.52;;;;;;;;;;4869331;29;20030;-80
2021/12/25 06:14:17;;;;;;;3.25;0.68;;;;;;;;;;4870352;29;20029;-78
2021/12/25 06:16:43;;;;;;;0.97;0.40;;;;;;;;;;4868270;29;20033;-78
2021/12/25 06:19:08;;;;;;;1.88;0.30;;;;;;;;;;4869921;29;20025;-79
2021/12/25 06:21:34;;;;;;;4.23;0.73;;;;;;;;;;4869492;29;20025;-77
2021/12/25 06:24:04;;;;;;;4.77;1.50;;;;;;;;;;4884422;29;20130;-78
2021/12/25 06:26:29;;;;;;;1.20;0.40;;;;;;;;;;4865909;29;20037;-79
2021/12/25 06:28:55;;;;;;;1.37;0.70;;;;;;;;;;4869128;29;20032;-79
2021/12/25 06:31:20;;;;;;;2.22;0.70;;;;;;;;;;4871272;29;20409;-78
2021/12/25 06:33:46;;;;;;;5.43;0.80;;;;;;;;;;4868780;29;20074;-77
2021/12/25 06:36:11;;;;;;;3.37;0.63;;;;;;;;;;4866596;29;20021;-78
2021/12/25 06:38:39;;;;;;;2.33;0.40;;;;;;;;;;4865394;29;20037;-79
2021/12/25 06:41:04;;;;;;;3.13;0.70;;;;;;;;;;4864746;29;20034;-78
2021/12/25 06:43:29;;;;;;;2.00;0.60;;;;;;;;;;4866251;29;20374;-77
2021/12/25 06:45:55;;;;;;;1.80;0.70;;;;;;;;;;4865774;29;20033;-76
2021/12/25 06:48:21;;;;;;;0.68;0.40;;;;;;;;;;4865470;29;20032;-78
2021/12/25 06:50:46;;;;;;;5.13;1.17;;;;;;;;;;4867200;29;20049;-77
2021/12/25 06:53:12;;;;;;;2.03;0.60;;;;;;;;;;4865874;29;20032;-77
2021/12/25 06:55:40;;;;;;;1.77;0.67;;;;;;;;;;4867345;29;20034;-78
2021/12/25 06:58:05;;;;;;;2.35;0.55;;;;;;;;;;4866379;29;20025;-78
2021/12/25 07:00:31;;;;;;;3.13;0.50;;;;;;;;;;4866780;29;20396;-78
2021/12/25 07:02:57;;;;;;;2.38;0.55;;;;;;;;;;4871653;29;20017;-78
2021/12/25 07:05:22;;;;;;;2.57;0.70;;;;;;;;;;4869362;29;20033;-78
2021/12/25 07:07:48;;;;;;;3.23;1.17;;;;;;;;;;4868047;29;20018;-77
2021/12/25 07:10:13;;;;;;;2.60;0.80;;;;;;;;;;4868082;29;20025;-78
2021/12/25 07:12:43;;;;;;;3.33;0.80;;;;;;;;;;4864491;29;20033;-78
2021/12/25 07:15:08;;;;;;;3.35;0.57;;;;;;;;;;4865147;29;20594;-78
2021/12/25 07:17:34;;;;;;;2.50;1.03;;;;;;;;;;4864326;29;20054;-78
2021/12/25 07:19:59;;;;;;;2.47;0.83;;;;;;;;;;4863239;29;20393;-78
2021/12/25 07:22:24;;;;;;;2.87;1.00;;;;;;;;;;4863445;29;20034;-78
2021/12/25 07:24:50;;;;;;;4.67;1.63;;;;;;;;;;4864606;29;20033;-78
2021/12/25 07:27:15;;;;;;;3.80;0.70;;;;;;;;;;4864634;29;20029;-78
2021/12/25 07:29:40;;;;;;;2.67;1.00;;;;;;;;;;4863074;29;20082;-78
2021/12/25 07:32:06;;;;;;;3.73;1.13;;;;;;;;;;4863231;29;20446;-79
2021/12/25 07:34:32;;;;;;;4.47;1.00;;;;;;;;;;4863124;29;20038;-78
2021/12/25 07:36:57;;;;;;;4.13;0.77;;;;;;;;;;4864355;29;20025;-78
2021/12/25 07:39:22;;;;;;;1.63;0.70;;;;;;;;;;4863966;29;20029;-78
2021/12/25 07:41:48;;;;;;;3.00;1.10;;;;;;;;;;4863362;29;20081;-78
2021/12/25 07:44:13;;;;;;;1.43;0.57;;;;;;;;;;4862921;29;20108;-78
2021/12/25 07:46:38;;;;;;;1.30;0.70;;;;;;;;;;4863099;29;20408;-77
2021/12/25 07:49:04;;;;;;;5.40;1.17;;;;;;;;;;4862820;29;20071;-78
2021/12/25 07:51:30;;;;;;;2.70;0.60;;;;;;;;;;4862462;29;20036;-78
2021/12/25 07:53:55;;;;;;;1.23;0.50;;;;;;;;;;4862708;29;20034;-77
2021/12/25 07:56:25;;;;;;;1.87;0.80;;;;;;;;;;4865638;29;20438;-78
2021/12/25 07:58:50;;;;;;;1.77;0.63;;;;;;;;;;4867169;29;20497;-78
2021/12/25 08:01:15;;;;;;;3.33;1.33;;;;;;;;;;4862600;29;20032;-77
2021/12/25 08:03:41;;;;;;;1.83;0.80;;;;;;;;;;4862224;29;20029;-77
2021/12/25 08:06:06;;;;;;;3.05;1.08;;;;;;;;;;4861714;29;20030;-78
2021/12/25 08:08:31;;;;;;;2.13;0.77;;;;;;;;;;4861795;29;20025;-78
2021/12/25 08:10:57;;;;;;;3.50;1.10;;;;;;;;;;4863957;29;20113;-77
2021/12/25 08:13:23;;;;;;;3.33;1.10;;;;;;;;;;4862374;29;20081;-77
2021/12/25 08:15:48;;;;;;;2.63;1.10;;;;;;;;;;4863080;29;20033;-77
2021/12/25 08:18:14;;;;;;;4.27;0.90;;;;;;;;;;4864262;29;20049;-79
2021/12/25 08:20:39;;;;;;;5.20;1.27;;;;;;;;;;4863368;29;20037;-77
2021/12/25 08:23:04;;;;;;;2.92;0.73;;;;;;;;;;4864229;29;20026;-77
2021/12/25 08:25:30;;;;;;;3.20;1.00;;;;;;;;;;4864420;29;20026;-77
2021/12/25 08:27:55;;;;;;;2.40;0.87;;;;;;;;;;4863741;29;20061;-78
2021/12/25 08:30:22;;;;;;;1.97;1.00;;;;;;;;;;4865299;29;20385;-77
2021/12/25 08:32:47;;;;;;;5.30;0.80;;;;;;;;;;4866140;29;20080;-78
2021/12/25 08:35:14;;;;;;;2.00;0.70;;;;;;;;;;4866405;29;20026;-80
2021/12/25 08:37:40;;;;;;;2.38;1.08;;;;;;;;;;4866856;29;20071;-79
2021/12/25 08:40:06;;;;;;;4.38;2.08;;;;;;;;;;4864546;29;20025;-77
2021/12/25 08:42:31;;;;;;;6.18;1.40;;;;;;;;;;4863075;29;20028;-78
2021/12/25 08:47:30;;;;;;;2.45;0.57;;;;;;;;;;4863142;29;20473;-78
2021/12/25 08:49:55;;;;;;;3.25;0.85;;;;;;;;;;4860834;29;20022;-78
2021/12/25 08:52:21;;;;;;;5.55;0.82;;;;;;;;;;4861080;29;20053;-78
2021/12/25 08:54:48;;;;;;;1.45;0.57;;;;;;;;;;4861193;29;20025;-78
2021/12/25 08:57:15;;;;;;;2.60;0.70;;;;;;;;;;4861891;29;20044;-79
2021/12/25 08:59:40;;;;;;;1.42;0.75;;;;;;;;;;4861510;29;20022;-77
2021/12/25 09:02:08;;;;;;;3.00;1.20;;;;;;;;;;4862578;29;20104;-78
2021/12/25 09:04:35;;;;;;;5.67;1.10;;;;;;;;;;4862275;29;20021;-78
2021/12/25 09:07:00;;;;;;;3.72;0.88;;;;;;;;;;4862402;29;20017;-78
2021/12/25 09:09:25;;;;;;;4.10;1.10;;;;;;;;;;4862258;29;20029;-77
2021/12/25 09:11:50;;;;;;;5.73;1.50;;;;;;;;;;4860989;29;20032;-77
2021/12/25 09:14:16;;;;;;;2.70;0.80;;;;;;;;;;4862116;29;20040;-77
2021/12/25 09:16:41;;;;;;;4.43;0.80;;;;;;;;;;4862995;29;20058;-79
2021/12/25 09:19:06;;;;;;;3.75;0.73;;;;;;;;;;4864513;29;20282;-78
2021/12/25 09:21:32;;;;;;;2.63;0.90;;;;;;;;;;4863543;29;20021;-79
2021/12/25 09:23:57;;;;;;;3.28;1.15;;;;;;;;;;4864659;29;20014;-78
2021/12/25 09:26:22;;;;;;;4.27;0.90;;;;;;;;;;4863294;29;20033;-79
2021/12/25 09:28:50;;;;;;;6.67;2.03;;;;;;;;;;4863595;29;20029;-78
2021/12/25 09:31:16;;;;;;;4.83;2.10;;;;;;;;;;4864283;29;20025;-78
2021/12/25 09:33:41;;;;;;;3.70;1.00;;;;;;;;;;4863970;29;20028;-78
2021/12/25 09:36:06;;;;;;;2.03;0.93;;;;;;;;;;4862077;29;20026;-78
2021/12/25 09:38:35;;;;;;;3.40;1.10;;;;;;;;;;4861288;29;20025;-78
2021/12/25 09:41:01;;;;;;;3.47;1.35;;;;;;;;;;4860796;29;20021;-77
2021/12/25 09:43:27;;;;;;;2.87;1.10;;;;;;;;;;4863036;29;20021;-78
2021/12/25 09:45:53;;;;;;;5.67;1.53;;;;;;;;;;4861058;29;20082;-77
2021/12/25 09:48:19;;;;;;;3.63;1.13;;;;;;;;;;4862395;29;20022;-76
2021/12/25 09:50:45;;;;;;;2.93;1.10;;;;;;;;;;4861166;29;20404;-78
2021/12/25 09:53:12;;;;;;;2.23;1.00;;;;;;;;;;4860621;29;20120;-77
2021/12/25 09:55:40;;;;;;;2.67;0.93;;;;;;;;;;4862082;29;20042;-78
2021/12/25 09:58:06;;;;;;;2.30;0.77;;;;;;;;;;4860271;29;20041;-77
2021/12/25 10:00:33;;;;;;;4.37;1.03;;;;;;;;;;4860089;29;20037;-78
2021/12/25 10:02:59;;;;;;;7.37;1.13;;;;;;;;;;4861042;29;20021;-77
2021/12/25 10:05:29;;;;;;;4.63;1.43;;;;;;;;;;4862248;29;20036;-78
2021/12/25 10:08:02;;;;;;;4.13;1.00;;;;;;;;;;4865457;29;20028;-77
2021/12/25 10:10:34;;;;;;;5.67;1.13;;;;;;;;;;4863676;29;20030;-77
2021/12/25 10:13:00;;;;;;;4.10;1.40;;;;;;;;;;4865206;29;20038;-78
2021/12/25 10:15:27;;;;;;;6.63;1.75;;;;;;;;;;4863888;29;20378;-82
2021/12/25 10:17:55;;;;;;;3.95;1.20;;;;;;;;;;4864067;29;20044;-77
2021/12/25 10:20:22;;;;;;;2.90;0.85;;;;;;;;;;4865868;29;20085;-77
2021/12/25 10:22:58;;;;;;;6.70;1.17;;;;;;;;;;4865211;29;20029;-78
2021/12/25 10:25:24;;;;;;;3.15;1.30;;;;;;;;;;4885699;23;20060;-80
2021/12/25 10:27:52;;;;;;;2.55;1.17;;;;;;;;;;4890371;29;20111;-81
2021/12/25 10:30:17;;;;;;;3.03;1.10;;;;;;;;;;4888224;29;20029;-81
2021/12/25 10:32:43;;;;;;;3.55;0.85;;;;;;;;;;4888593;29;20021;-81
2021/12/25 10:35:13;;;;;;;2.13;1.00;;;;;;;;;;4887198;29;20029;-82
2021/12/25 10:37:39;;;;;;;2.75;0.90;;;;;;;;;;4888821;29;20495;-82
2021/12/25 10:40:16;;;;;;;3.25;1.05;;;;;;;;;;4888993;29;20056;-80
2021/12/25 10:42:44;;;;;;;4.55;1.10;;;;;;;;;;4894980;29;20029;-81
2021/12/25 10:45:16;;;;;;;2.75;0.88;;;;;;;;;;4890302;29;20025;-82
2021/12/25 10:47:41;;;;;;;5.80;1.40;;;;;;;;;;4890685;29;20104;-81
2021/12/25 10:50:11;;;;;;;4.13;1.60;;;;;;;;;;4891181;29;20382;-81
2021/12/25 10:52:42;;;;;;;3.05;1.10;;;;;;;;;;4892207;29;20025;-81
2021/12/25 10:55:16;;;;;;;3.03;1.55;;;;;;;;;;4891940;29;20084;-83
2021/12/25 10:57:46;;;;;;;3.72;1.23;;;;;;;;;;4889529;29;20485;-82
2021/12/25 11:00:13;;;;;;;4.15;1.55;;;;;;;;;;4889010;29;20025;-81
2021/12/25 11:02:40;;;;;;;5.60;1.77;;;;;;;;;;4887687;29;20029;-82
2021/12/25 11:05:19;;;;;;;3.65;1.35;;;;;;;;;;4886436;29;20029;-81
2021/12/25 11:07:45;;;;;;;4.68;1.55;;;;;;;;;;4887207;29;20028;-81
2021/12/25 11:10:19;;;;;;;3.58;1.50;;;;;;;;;;4885189;29;20025;-81
2021/12/25 11:12:45;;;;;;;4.15;1.30;;;;;;;;;;4885998;29;20051;-82
2021/12/25 11:15:16;;;;;;;4.15;1.58;;;;;;;;;;4887025;29;20014;-81
2021/12/25 11:17:43;;;;;;;3.53;1.33;;;;;;;;;;4887119;29;20025;-81
2021/12/25 11:20:17;;;;;;;4.35;1.70;;;;;;;;;;4887934;29;20014;-81
2021/12/25 11:22:50;;;;;;;4.53;1.25;;;;;;;;;;4887702;29;20025;-81
2021/12/25 11:25:16;;;;;;;8.60;1.50;;;;;;;;;;4888611;29;20033;-82
2021/12/25 11:27:42;;;;;;;2.67;1.10;;;;;;;;;;4887727;29;20017;-82
2021/12/25 11:30:10;;;;;;;6.75;1.30;;;;;;;;;;4888006;29;20066;-81
2021/12/25 11:32:35;;;;;;;3.35;1.42;;;;;;;;;;4887448;29;20072;-82
2021/12/25 11:35:01;;;;;;;5.40;1.10;;;;;;;;;;4888750;29;20477;-82
2021/12/25 11:37:26;;;;;;;3.45;1.10;;;;;;;;;;4891550;29;20025;-81
2021/12/25 11:39:53;;;;;;;3.75;1.05;;;;;;;;;;4890190;29;20036;-81
2021/12/25 11:42:20;;;;;;;3.95;1.10;;;;;;;;;;4889483;29;20035;-82
2021/12/25 11:44:49;;;;;;;3.28;1.40;;;;;;;;;;4893672;29;20080;-81
2021/12/25 11:47:37;;;;;;;3.50;1.27;;;;;;;;;;4889417;29;20483;-82
2021/12/25 11:50:11;;;;;;;4.57;1.40;;;;;;;;;;4892380;29;20028;-81
2021/12/25 11:52:48;;;;;;;6.50;1.52;;;;;;;;;;4891653;29;20049;-81
2021/12/25 11:55:25;;;;;;;4.20;1.45;;;;;;;;;;4891098;29;20021;-81
2021/12/25 12:00:36;;;;;;;5.25;1.42;;;;;;;;;;4894590;29;20029;-81
2021/12/25 12:03:01;;;;;;;1.30;0.75;;;;;;;;;;4894240;29;20021;-81
2021/12/25 12:05:28;;;;;;;4.78;1.65;;;;;;;;;;4893235;29;20051;-81
2021/12/25 12:07:56;;;;;;;4.40;1.20;;;;;;;;;;4892783;29;20021;-81
2021/12/25 12:10:41;;;;;;;15.75;1.95;;;;;;;;;;4893897;29;20017;-82
2021/12/25 12:13:20;;;;;;;4.15;1.40;;;;;;;;;;4892112;29;20067;-81
2021/12/25 12:15:45;;;;;;;;;;;;;;;;;;4890372;29;20036;-82
2021/12/25 12:18:32;;;;;;;4.13;1.70;;;;;;;;;;4889252;29;19908;-81
2021/12/25 12:21:11;;;;;;;2.70;1.20;;;;;;;;;;4890939;29;20025;-81
2021/12/25 12:26:09;;;;;;;6.20;1.55;;;;;;;;;;4890588;29;20044;-81
2021/12/25 12:28:44;;;;;;;10.55;1.40;;;;;;;;;;4893686;29;20024;-81
2021/12/25 12:31:29;;;;;;;3.97;1.40;;;;;;;;;;4892839;29;20032;-82
2021/12/25 12:33:55;;;;;;;6.97;1.70;;;;;;;;;;4891854;29;20057;-82
2021/12/25 12:36:22;;;;;;;2.83;1.33;;;;;;;;;;4889892;29;20036;-81
2021/12/25 12:38:51;;;;;;;4.82;1.40;;;;;;;;;;4891257;29;20056;-81
2021/12/25 12:41:26;;;;;;;8.30;1.88;;;;;;;;;;4892329;29;20088;-81
2021/12/25 12:44:06;;;;;;;4.10;1.63;;;;;;;;;;4889957;29;20032;-81
2021/12/25 12:46:50;;;;;;;5.32;1.35;;;;;;;;;;4892684;29;20036;-82
2021/12/25 12:49:19;;;;;;;1.52;0.80;;;;;;;;;;4891960;29;20220;-81
2021/12/25 12:51:45;;;;;;;3.95;1.13;;;;;;;;;;4889150;29;20089;-81
2021/12/25 12:54:10;;;;;;;4.60;1.50;;;;;;;;;;4890676;29;20367;-81
2021/12/25 12:56:36;;;;;;;10.95;2.22;;;;;;;;;;4892244;29;20052;-82
2021/12/25 12:59:02;;;;;;;4.60;1.60;;;;;;;;;;4887418;29;20025;-80
2021/12/25 13:01:27;;;;;;;6.47;2.10;;;;;;;;;;4889032;29;20032;-81
2021/12/25 13:03:57;;;;;;;8.27;2.08;;;;;;;;;;4891628;29;20020;-80
2021/12/25 13:06:25;;;;;;;4.70;1.52;;;;;;;;;;4893979;29;20025;-83
2021/12/25 13:08:50;;;;;;;5.97;1.90;;;;;;;;;;4893989;29;20031;-82
2021/12/25 13:11:23;;;;;;;5.18;1.52;;;;;;;;;;4895011;29;20025;-83
2021/12/25 13:13:54;;;;;;;5.50;1.42;;;;;;;;;;4895318;29;20104;-82
2021/12/25 13:16:20;;;;;;;7.75;1.75;;;;;;;;;;4895376;29;20027;-83
2021/12/25 13:18:47;;;;;;;5.30;1.58;;;;;;;;;;4893124;29;20056;-81
2021/12/25 13:21:14;;;;;;;7.95;1.40;;;;;;;;;;4894296;29;20112;-81
2021/12/25 13:23:46;;;;;;;4.07;1.35;;;;;;;;;;4890322;29;20021;-82
2021/12/25 13:26:14;;;;;;;4.43;1.23;;;;;;;;;;4889268;29;20040;-82
2021/12/25 13:28:40;;;;;;;5.25;2.13;;;;;;;;;;4887787;29;20086;-81
2021/12/25 13:31:10;;;;;;;5.72;1.35;;;;;;;;;;4886589;29;20032;-80
2021/12/25 13:33:41;;;;;;;4.93;1.45;;;;;;;;;;4887416;29;20049;-81
2021/12/25 13:36:08;;;;;;;5.20;1.50;;;;;;;;;;4886165;29;20107;-79
2021/12/25 13:38:48;;;;;;;3.80;1.30;;;;;;;;;;4886026;29;20033;-81
2021/12/25 13:41:14;;;;;;;5.53;1.77;;;;;;;;;;4887465;29;20025;-80
2021/12/25 13:43:39;;;;;;;7.13;1.67;;;;;;;;;;4887001;29;20157;-81
2021/12/25 13:46:04;;;;;;;9.65;1.85;;;;;;;;;;4882347;29;20149;-80
2021/12/25 13:48:37;;;;;;;6.30;1.77;;;;;;;;;;4886865;29;20025;-81
2021/12/25 13:51:02;;;;;;;12.13;4.68;;;;;;;;;;4886385;29;20056;-80
2021/12/25 13:53:29;;;;;;;7.53;2.60;;;;;;;;;;4880912;29;20033;-81
2021/12/25 13:55:55;;;;;;;11.65;2.63;;;;;;;;;;4882711;29;20032;-81
2021/12/25 13:58:20;;;;;;;6.30;1.65;;;;;;;;;;4881763;29;20029;-79
2021/12/25 14:00:48;;;;;;;4.55;1.20;;;;;;;;;;4886283;29;20040;-80
2021/12/25 14:03:15;;;;;;;5.05;1.55;;;;;;;;;;4889158;29;20021;-81
2021/12/25 14:05:42;;;;;;;5.93;2.58;;;;;;;;;;4891485;29;20029;-82
2021/12/25 14:08:07;;;;;;;6.82;2.30;;;;;;;;;;4886745;29;20050;-81
2021/12/25 14:10:34;;;;;;;5.22;1.60;;;;;;;;;;4886708;29;20017;-81
2021/12/25 14:13:02;;;;;;;7.03;1.77;;;;;;;;;;4886438;29;20104;-80
2021/12/25 14:15:29;;;;;;;8.90;1.60;;;;;;;;;;4885588;29;20441;-81
2021/12/25 14:17:55;;;;;;;7.75;2.45;;;;;;;;;;4886602;29;20042;-81
2021/12/25 14:20:22;;;;;;;7.13;1.73;;;;;;;;;;4885159;29;20029;-82
2021/12/25 14:22:49;;;;;;;4.28;1.40;;;;;;;;;;4884936;29;20036;-81
2021/12/25 14:25:23;;;;;;;20.67;2.83;;;;;;;;;;4883908;29;20108;-81
2021/12/25 14:28:02;;;;;;;4.67;1.53;;;;;;;;;;4883903;29;20032;-82
2021/12/25 14:30:28;;;;;;;4.87;1.57;;;;;;;;;;4883855;29;20116;-81
2021/12/25 14:32:53;;;;;;;4.67;1.60;;;;;;;;;;4883873;29;20104;-81
2021/12/25 14:35:20;;;;;;;6.50;2.20;;;;;;;;;;4882256;29;20027;-82
2021/12/25 14:37:45;;;;;;;5.53;2.03;;;;;;;;;;4884891;29;20099;-82
2021/12/25 14:40:15;;;;;;;7.93;2.10;;;;;;;;;;4885280;29;20045;-81
2021/12/25 14:42:44;;;;;;;10.83;2.03;;;;;;;;;;4886255;29;20025;-81
2021/12/25 14:45:10;;;;;;;6.45;2.00;;;;;;;;;;4882914;29;20056;-81
2021/12/25 14:47:44;;;;;;;4.77;1.73;;;;;;;;;;4884849;29;20025;-82
2021/12/25 14:50:14;;;;;;;6.13;1.57;;;;;;;;;;4885906;29;20062;-80
2021/12/25 14:52:39;;;;;;;5.67;2.63;;;;;;;;;;4893631;29;20025;-81
2021/12/25 14:55:15;;;;;;;5.17;1.80;;;;;;;;;;4890552;29;20025;-81
2021/12/25 14:57:40;;;;;;;9.27;2.07;;;;;;;;;;4886480;29;20029;-81
2021/12/25 15:00:06;;;;;;;5.23;2.00;;;;;;;;;;4886562;29;20035;-81
2021/12/25 15:02:31;;;;;;;6.07;2.33;;;;;;;;;;4887815;29;20029;-81
2021/12/25 15:04:58;;;;;;;3.53;1.70;;;;;;;;;;4887004;29;20021;-82
2021/12/25 15:07:23;;;;;;;6.27;1.87;;;;;;;;;;4888162;29;20032;-82
2021/12/25 15:09:50;;;;;;;7.53;1.80;;;;;;;;;;4887846;29;20039;-81
2021/12/25 15:12:21;;;;;;;5.27;1.67;;;;;;;;;;4888205;29;20489;-82
2021/12/25 15:14:49;;;;;;;4.47;1.63;;;;;;;;;;4887880;29;20025;-81
2021/12/25 15:17:22;;;;;;;5.47;1.70;;;;;;;;;;4886472;29;20036;-81
2021/12/25 15:19:55;;;;;;;4.13;1.43;;;;;;;;;;4887400;29;20057;-81
2021/12/25 15:22:22;;;;;;;6.30;2.03;;;;;;;;;;4886014;29;20029;-82
2021/12/25 15:24:49;;;;;;;7.13;1.70;;;;;;;;;;4887366;29;20037;-81
2021/12/25 15:27:22;;;;;;;4.13;1.70;;;;;;;;;;4887386;29;20033;-81
2021/12/25 15:29:49;;;;;;;3.90;1.50;;;;;;;;;;4886750;29;20128;-82
2021/12/25 15:32:16;;;;;;;4.93;1.40;;;;;;;;;;4886111;29;20032;-81
2021/12/25 15:35:06;;;;;;;6.60;1.70;;;;;;;;;;4887075;29;20021;-82
2021/12/25 15:37:32;;;;;;;5.40;1.60;;;;;;;;;;4884899;29;20025;-81
2021/12/25 15:39:59;;;;;;;6.73;2.30;;;;;;;;;;4885445;29;20532;-82
2021/12/25 15:42:28;;;;;;;5.33;1.40;;;;;;;;;;4884952;29;20029;-81
2021/12/25 15:44:54;;;;;;;5.73;1.67;;;;;;;;;;4882435;29;20446;-81
2021/12/25 15:47:21;;;;;;;7.87;2.37;;;;;;;;;;4884184;29;20053;-82
2021/12/25 15:49:47;;;;;;;6.00;1.80;;;;;;;;;;4883832;29;20108;-81
2021/12/25 15:52:12;;;;;;;5.57;2.20;;;;;;;;;;4889759;29;20048;-81
2021/12/25 15:54:38;;;;;;;4.23;1.80;;;;;;;;;;4892291;29;20021;-80
2021/12/25 15:57:06;;;;;;;5.63;2.10;;;;;;;;;;4891462;29;20033;-80
2021/12/25 15:59:35;;;;;;;5.07;2.07;;;;;;;;;;4884304;29;20523;-81
2021/12/25 16:02:01;;;;;;;6.47;2.50;;;;;;;;;;4885056;29;20029;-81
2021/12/25 16:04:27;;;;;;;8.47;2.47;;;;;;;;;;4884431;29;20056;-81
2021/12/25 16:06:53;;;;;;;9.67;2.70;;;;;;;;;;4884100;29;20058;-81
2021/12/25 16:09:18;;;;;;;4.70;1.93;;;;;;;;;;4881399;29;20100;-81
2021/12/25 16:11:43;;;;;;;4.73;1.67;;;;;;;;;;4883007;29;20050;-81
2021/12/25 16:14:08;;;;;;;5.23;2.03;;;;;;;;;;4880910;29;20413;-81